createdAt,value
2022-08-07T00:01:44.704Z,1.25
2022-08-07T00:04:09.213Z,0.93
2022-08-07T00:06:40.900Z,1.40
2022-08-07T00:09:21.345Z,1.70
2022-08-07T00:11:55.635Z,2.13
2022-08-07T00:14:25.445Z,3.83
2022-08-07T00:16:52.700Z,1.40
2022-08-07T00:19:21.621Z,1.77
2022-08-07T00:21:57.361Z,3.60
2022-08-07T00:24:29.016Z,3.03
2022-08-07T00:27:07.653Z,2.88
2022-08-07T00:29:37.138Z,2.58
2022-08-07T00:32:05.952Z,4.10
2022-08-07T00:34:35.485Z,1.92
2022-08-07T00:37:05.134Z,1.67
2022-08-07T00:39:33.799Z,3.20
2022-08-07T00:42:02.293Z,1.85
2022-08-07T00:44:33.090Z,2.58
2022-08-07T00:47:01.493Z,2.50
2022-08-07T00:50:19.475Z,2.42
2022-08-07T00:52:17.605Z,3.20
2022-08-07T00:54:44.500Z,2.20
2022-08-07T00:57:12.616Z,4.10
2022-08-07T00:59:39.502Z,1.90
2022-08-07T01:02:14.237Z,2.50
2022-08-07T01:04:54.329Z,2.65
2022-08-07T01:07:27.543Z,2.75
2022-08-07T01:10:07.011Z,2.63
2022-08-07T01:12:43.975Z,2.50
2022-08-07T01:16:01.336Z,2.38
2022-08-07T01:18:17.188Z,2.03
2022-08-07T01:21:04.294Z,3.10
2022-08-07T01:23:46.717Z,1.88
2022-08-07T01:26:16.729Z,2.28
2022-08-07T01:28:49.875Z,2.17
2022-08-07T01:31:27.945Z,2.13
2022-08-07T01:34:09.137Z,3.22
2022-08-07T01:36:40.854Z,3.75
2022-08-07T01:39:14.366Z,2.38
2022-08-07T01:42:07.179Z,2.85
2022-08-07T01:44:36.191Z,3.08
2022-08-07T01:48:16.492Z,2.30
2022-08-07T01:49:53.608Z,3.15
2022-08-07T01:52:26.589Z,2.60
2022-08-07T01:54:56.464Z,2.28
2022-08-07T01:58:01.249Z,2.17
2022-08-07T02:00:28.652Z,3.35
2022-08-07T02:03:18.917Z,2.20
2022-08-07T02:06:01.066Z,1.92
2022-08-07T02:11:03.790Z,2.92
2022-08-07T02:13:57.478Z,3.38
2022-08-07T02:16:28.606Z,3.85
2022-08-07T02:19:05.662Z,3.63
2022-08-07T02:21:56.435Z,2.78
2022-08-07T02:24:26.184Z,2.53
2022-08-07T02:26:58.437Z,4.57
2022-08-07T02:29:29.097Z,3.38
2022-08-07T02:31:57.920Z,2.80
2022-08-07T02:34:27.725Z,6.10
2022-08-07T02:36:56.640Z,4.00
2022-08-07T02:39:42.431Z,3.30
2022-08-07T02:42:16.219Z,3.22
2022-08-07T02:44:48.870Z,3.45
2022-08-07T02:47:23.457Z,4.47
2022-08-07T02:49:58.092Z,6.43
2022-08-07T02:52:41.581Z,6.65
2022-08-07T02:55:28.288Z,6.20
2022-08-07T02:58:10.940Z,4.85
2022-08-07T03:00:47.402Z,6.28
2022-08-07T03:03:20.951Z,5.70
2022-08-07T03:05:51.707Z,6.13
2022-08-07T03:08:26.936Z,9.18
2022-08-07T03:10:59.664Z,7.55
2022-08-07T03:13:39.195Z,6.78
2022-08-07T03:16:18.696Z,8.38
2022-08-07T03:18:55.118Z,9.05
2022-08-07T03:21:23.388Z,10.27
2022-08-07T03:24:19.218Z,9.60
2022-08-07T03:26:51.030Z,8.50
2022-08-07T03:29:27.535Z,7.40
2022-08-07T03:31:56.297Z,9.68
2022-08-07T03:34:27.544Z,10.52
2022-08-07T03:37:00.161Z,11.77
2022-08-07T03:39:58.941Z,8.10
2022-08-07T03:42:28.193Z,9.18
2022-08-07T03:44:58.134Z,8.68
2022-08-07T03:47:29.629Z,8.27
2022-08-07T03:50:17.518Z,9.18
2022-08-07T03:52:52.497Z,10.23
2022-08-07T03:55:20.047Z,9.18
2022-08-07T03:59:04.641Z,10.27
2022-08-07T04:00:46.486Z,10.95
2022-08-07T04:03:20.884Z,9.35
2022-08-07T04:05:50.551Z,11.80
2022-08-07T04:08:21.878Z,12.13
2022-08-07T04:10:54.026Z,9.15
2022-08-07T04:14:10.627Z,9.80
2022-08-07T04:16:31.058Z,10.68
2022-08-07T04:19:04.232Z,10.30
2022-08-07T04:21:39.909Z,10.40
2022-08-07T04:24:33.701Z,13.27
2022-08-07T04:27:04.899Z,13.50
2022-08-07T04:29:57.142Z,18.25
2022-08-07T04:32:27.203Z,15.25
2022-08-07T04:35:05.516Z,12.25
2022-08-07T04:38:01.025Z,12.98
2022-08-07T04:40:26.600Z,13.18
2022-08-07T04:43:01.904Z,15.20
2022-08-07T04:45:57.609Z,13.70
2022-08-07T04:49:01.507Z,14.13
2022-08-07T04:51:47.169Z,14.93
2022-08-07T04:54:30.312Z,12.30
2022-08-07T05:00:11.067Z,12.25
2022-08-07T05:03:16.745Z,12.77
2022-08-07T05:06:16.413Z,12.98
2022-08-07T05:09:01.425Z,12.77
2022-08-07T05:11:58.835Z,11.93
2022-08-07T05:14:54.053Z,13.40
2022-08-07T05:17:52.933Z,11.80
2022-08-07T05:20:17.958Z,11.27
2022-08-07T05:22:49.483Z,10.30
2022-08-07T05:25:25.557Z,10.48
2022-08-07T05:28:20.589Z,10.40
2022-08-07T05:30:52.343Z,10.60
2022-08-07T05:33:21.789Z,7.88
2022-08-07T05:35:53.585Z,9.77
2022-08-07T05:39:00.301Z,7.68
2022-08-07T05:41:16.762Z,7.43
2022-08-07T05:44:11.648Z,7.80
2022-08-07T05:46:38.266Z,5.75
2022-08-07T05:49:12.102Z,6.75
2022-08-07T05:51:46.371Z,4.75
2022-08-07T05:54:30.339Z,5.40
2022-08-07T05:57:08.855Z,5.53
2022-08-07T05:59:57.132Z,5.45
2022-08-07T06:02:30.661Z,4.53
2022-08-07T06:05:05.162Z,3.30
2022-08-07T06:08:09.164Z,3.30
2022-08-07T06:10:23.713Z,5.32
2022-08-07T06:12:50.935Z,2.70
2022-08-07T06:15:19.688Z,3.53
2022-08-07T06:17:50.632Z,3.17
2022-08-07T06:20:25.678Z,3.60
2022-08-07T06:23:02.549Z,2.65
2022-08-07T06:25:54.647Z,3.15
2022-08-07T06:28:27.708Z,3.05
2022-08-07T06:30:58.121Z,2.23
2022-08-07T06:33:26.691Z,3.35
2022-08-07T06:36:13.531Z,2.58
2022-08-07T06:38:59.230Z,4.55
2022-08-07T06:42:00.716Z,1.60
2022-08-07T06:45:11.899Z,2.40
2022-08-07T06:47:57.470Z,2.10
2022-08-07T06:50:30.549Z,2.55
2022-08-07T06:53:00.371Z,1.63
2022-08-07T06:55:48.079Z,1.98
2022-08-07T06:58:24.505Z,3.72
2022-08-07T07:01:00.159Z,2.22
2022-08-07T07:03:47.647Z,1.55
2022-08-07T07:06:14.543Z,1.55
2022-08-07T07:08:50.856Z,1.67
2022-08-07T07:12:07.553Z,2.03
2022-08-07T07:14:08.299Z,2.15
2022-08-07T07:16:50.040Z,2.95
2022-08-07T07:19:55.405Z,1.75
2022-08-07T07:22:34.412Z,2.10
2022-08-07T07:26:30.862Z,1.70
2022-08-07T07:28:42.357Z,1.80
2022-08-07T07:31:27.109Z,5.07
2022-08-07T07:34:04.890Z,1.15
2022-08-07T07:36:35.293Z,1.20
2022-08-07T07:39:09.193Z,1.02
2022-08-07T07:42:02.316Z,2.15
2022-08-07T07:44:28.196Z,0.63
2022-08-07T07:47:04.371Z,2.20
2022-08-07T07:50:35.717Z,1.85
2022-08-07T07:52:32.474Z,2.25
2022-08-07T07:54:59.914Z,1.50
2022-08-07T07:57:43.612Z,1.42
2022-08-07T08:00:29.768Z,0.88
2022-08-07T08:03:06.135Z,1.13
2022-08-07T08:05:51.049Z,1.15
2022-08-07T08:08:35.262Z,2.17
2022-08-07T08:11:09.307Z,1.27
2022-08-07T08:13:54.642Z,1.70
2022-08-07T08:16:37.153Z,0.95
2022-08-07T08:19:17.804Z,0.70
2022-08-07T08:22:14.353Z,0.55
2022-08-07T08:25:18.849Z,1.10
2022-08-07T08:27:56.252Z,2.28
2022-08-07T08:30:29.695Z,1.20
2022-08-07T08:33:03.031Z,2.53
2022-08-07T08:35:39.278Z,0.80
2022-08-07T08:38:17.903Z,1.00
2022-08-07T08:41:16.812Z,1.27
2022-08-07T08:44:19.322Z,1.13
2022-08-07T08:46:59.000Z,0.98
2022-08-07T08:50:02.183Z,0.93
2022-08-07T08:52:32.111Z,0.80
2022-08-07T08:55:55.362Z,1.00
2022-08-07T08:58:29.980Z,0.85
2022-08-07T09:01:14.826Z,0.65
2022-08-07T09:03:53.150Z,0.70
2022-08-07T09:06:42.657Z,0.70
2022-08-07T09:09:44.670Z,2.80
2022-08-07T09:12:20.078Z,2.70
2022-08-07T09:16:23.615Z,2.08
2022-08-07T09:18:16.880Z,1.88
2022-08-07T09:21:57.905Z,0.52
2022-08-07T09:24:59.654Z,2.40
2022-08-07T09:27:38.366Z,2.13
2022-08-07T09:30:25.518Z,1.13
2022-08-07T09:33:24.233Z,1.38
2022-08-07T09:36:06.005Z,1.00
2022-08-07T09:38:54.014Z,1.58
2022-08-07T09:41:58.930Z,2.28
2022-08-07T09:47:24.928Z,1.50
2022-08-07T09:48:03.726Z,2.03
2022-08-07T09:50:39.884Z,2.00
2022-08-07T09:53:10.116Z,2.20
2022-08-07T09:56:03.106Z,1.38
2022-08-07T09:59:00.948Z,2.92
2022-08-07T10:02:01.565Z,1.58
2022-08-07T10:04:38.428Z,1.48
2022-08-07T10:07:53.624Z,1.67
2022-08-07T10:11:59.494Z,1.92
2022-08-07T10:14:01.451Z,2.33
2022-08-07T10:16:50.113Z,1.67
2022-08-07T10:19:54.499Z,1.10
2022-08-07T10:22:45.361Z,1.05
2022-08-07T10:25:43.234Z,1.98
2022-08-07T10:28:31.121Z,2.15
2022-08-07T10:31:17.740Z,1.15
2022-08-07T10:34:06.797Z,3.65
2022-08-07T10:36:49.413Z,1.58
2022-08-07T10:39:41.220Z,1.10
2022-08-07T10:42:20.823Z,10.93
2022-08-07T10:44:54.541Z,2.33
2022-08-07T10:47:50.612Z,1.27
2022-08-07T10:50:26.119Z,3.53
2022-08-07T10:53:41.703Z,1.42
2022-08-07T10:56:36.249Z,1.50
2022-08-07T10:59:30.356Z,1.60
2022-08-07T11:02:53.338Z,1.50
2022-08-07T11:05:50.914Z,1.52
2022-08-07T11:08:32.364Z,2.22
2022-08-07T11:11:03.001Z,2.42
2022-08-07T11:14:41.943Z,1.80
2022-08-07T11:16:34.303Z,1.38
2022-08-07T11:19:21.670Z,1.10
2022-08-07T11:22:06.440Z,1.67
2022-08-07T11:28:02.319Z,1.55
2022-08-07T11:30:45.536Z,2.20
2022-08-07T11:33:58.548Z,1.65
2022-08-07T11:36:39.307Z,1.52
2022-08-07T11:39:24.119Z,1.60
2022-08-07T11:42:19.102Z,0.88
2022-08-07T11:44:58.785Z,3.00
2022-08-07T11:48:30.022Z,5.15
2022-08-07T11:51:41.354Z,1.30
2022-08-07T11:54:17.412Z,2.63
2022-08-07T11:57:52.351Z,3.20
2022-08-07T12:00:19.127Z,1.40
2022-08-07T12:03:41.983Z,1.30
2022-08-07T12:06:36.938Z,1.92
2022-08-07T12:09:01.919Z,2.45
2022-08-07T12:12:10.775Z,1.98
2022-08-07T12:14:41.290Z,3.92
2022-08-07T12:17:19.922Z,2.97
2022-08-07T12:20:03.443Z,1.15
2022-08-07T12:23:14.473Z,2.28
2022-08-07T12:26:23.528Z,1.35
2022-08-07T12:29:15.311Z,1.23
2022-08-07T12:32:04.365Z,1.08
2022-08-07T12:34:38.852Z,1.60
2022-08-07T12:37:16.847Z,1.48
2022-08-07T12:39:51.791Z,3.92
2022-08-07T12:42:27.691Z,1.90
2022-08-07T12:44:58.178Z,1.00
2022-08-07T12:47:37.464Z,1.20
2022-08-07T12:50:34.321Z,1.98
2022-08-07T12:53:29.052Z,1.33
2022-08-07T12:56:30.943Z,1.17
2022-08-07T12:59:00.812Z,1.75
2022-08-07T13:01:58.967Z,1.42
2022-08-07T13:04:49.139Z,1.45
2022-08-07T13:08:13.899Z,1.02
2022-08-07T13:10:56.995Z,2.15
2022-08-07T13:13:46.874Z,1.70
2022-08-07T13:16:37.113Z,1.42
2022-08-07T13:19:50.788Z,2.80
2022-08-07T13:22:31.165Z,2.08
2022-08-07T13:25:15.276Z,1.30
2022-08-07T13:28:12.575Z,1.23
2022-08-07T13:30:49.183Z,1.83
2022-08-07T13:34:33.810Z,1.80
2022-08-07T13:36:45.098Z,2.83
2022-08-07T13:40:33.387Z,2.88
2022-08-07T13:42:27.458Z,2.08
2022-08-07T13:45:20.717Z,1.40
2022-08-07T13:48:06.945Z,1.00
2022-08-07T13:50:45.241Z,1.10
2022-08-07T13:54:00.826Z,1.38
2022-08-07T13:56:36.084Z,1.92
2022-08-07T13:59:18.644Z,1.08
2022-08-07T14:02:04.754Z,0.85
2022-08-07T14:04:36.363Z,1.98
2022-08-07T14:07:09.542Z,2.00
2022-08-07T14:10:02.783Z,2.40
2022-08-07T14:12:41.776Z,2.80
2022-08-07T14:15:31.680Z,2.60
2022-08-07T14:18:28.702Z,1.60
2022-08-07T14:22:01.021Z,2.08
2022-08-07T14:24:04.984Z,1.67
2022-08-07T14:26:50.499Z,1.40
2022-08-07T14:30:05.723Z,1.67
2022-08-07T14:32:14.039Z,1.05
2022-08-07T14:34:47.281Z,0.93
2022-08-07T14:37:17.368Z,3.13
2022-08-07T14:40:16.980Z,1.15
2022-08-07T14:43:56.017Z,1.40
2022-08-07T14:45:46.403Z,1.25
2022-08-07T14:48:20.388Z,1.10
2022-08-07T14:50:53.643Z,3.28
2022-08-07T14:54:05.667Z,2.13
2022-08-07T14:56:13.039Z,1.15
2022-08-07T15:01:21.683Z,1.95
2022-08-07T15:03:52.349Z,0.77
2022-08-07T15:06:29.850Z,1.27
2022-08-07T15:12:01.840Z,1.20
2022-08-07T15:13:05.805Z,2.10
2022-08-07T15:14:35.209Z,1.40
2022-08-07T15:17:32.494Z,1.52
2022-08-07T15:20:33.185Z,2.08
2022-08-07T15:23:16.989Z,2.25
2022-08-07T15:25:55.904Z,2.13
2022-08-07T15:28:34.697Z,1.00
2022-08-07T15:31:09.594Z,0.80
2022-08-07T15:33:42.796Z,2.60
2022-08-07T15:36:10.229Z,1.20
2022-08-07T15:38:59.249Z,1.67
2022-08-07T15:42:44.756Z,1.33
2022-08-07T15:44:20.775Z,1.40
2022-08-07T15:50:03.987Z,2.13
2022-08-07T15:52:30.674Z,1.15
2022-08-07T15:55:02.472Z,2.08
2022-08-07T15:57:48.228Z,2.17
2022-08-07T16:00:32.196Z,0.90
2022-08-07T16:03:46.348Z,1.17
2022-08-07T16:06:10.455Z,1.30
2022-08-07T16:08:42.567Z,1.50
2022-08-07T16:11:41.742Z,1.40
2022-08-07T16:14:19.202Z,0.95
2022-08-07T16:16:56.804Z,1.10
2022-08-07T16:19:58.975Z,1.35
2022-08-07T16:22:54.491Z,2.10
2022-08-07T16:25:23.226Z,0.88
2022-08-07T16:27:57.305Z,1.35
2022-08-07T16:30:32.440Z,2.13
2022-08-07T16:34:02.644Z,2.13
2022-08-07T16:36:31.471Z,1.45
2022-08-07T16:39:40.470Z,1.70
2022-08-07T16:43:02.684Z,1.15
2022-08-07T16:46:40.366Z,2.03
2022-08-07T16:49:04.046Z,1.13
2022-08-07T16:51:57.684Z,1.60
2022-08-07T16:54:34.557Z,1.45
2022-08-07T16:57:06.093Z,1.20
2022-08-07T17:00:14.935Z,2.17
2022-08-07T17:03:07.043Z,1.52
2022-08-07T17:06:19.303Z,1.20
2022-08-07T17:10:04.991Z,1.17
2022-08-07T17:12:44.765Z,1.98
2022-08-07T17:15:20.843Z,2.00
2022-08-07T17:17:47.922Z,1.90
2022-08-07T17:20:37.931Z,2.08
2022-08-07T17:23:22.909Z,1.15
2022-08-07T17:26:24.094Z,1.55
2022-08-07T17:28:58.043Z,1.85
2022-08-07T17:31:33.906Z,1.52
2022-08-07T17:34:35.027Z,1.70
2022-08-07T17:38:05.480Z,1.20
2022-08-07T17:40:30.260Z,1.42
2022-08-07T17:45:56.328Z,1.92
2022-08-07T17:48:30.718Z,1.33
2022-08-07T17:51:59.935Z,3.05
2022-08-07T17:54:29.566Z,1.80
2022-08-07T17:57:56.400Z,2.80
2022-08-07T18:00:33.426Z,1.85
2022-08-07T18:03:09.215Z,3.05
2022-08-07T18:06:02.272Z,1.50
2022-08-07T18:09:00.546Z,2.00
2022-08-07T18:12:12.004Z,2.20
2022-08-07T18:14:38.251Z,1.42
2022-08-07T18:18:46.500Z,1.50
2022-08-07T18:21:08.514Z,1.40
2022-08-07T18:23:57.177Z,1.83
2022-08-07T18:26:40.486Z,1.20
2022-08-07T18:30:05.608Z,1.70
2022-08-07T18:32:22.813Z,1.17
2022-08-07T18:35:15.705Z,1.70
2022-08-07T18:38:58.087Z,1.50
2022-08-07T18:41:08.343Z,1.70
2022-08-07T18:43:57.283Z,2.55
2022-08-07T18:46:49.409Z,2.03
2022-08-07T18:50:31.424Z,2.50
2022-08-07T18:52:54.172Z,1.25
2022-08-07T18:55:57.208Z,2.28
2022-08-07T18:58:55.564Z,2.38
2022-08-07T19:02:18.776Z,4.38
2022-08-07T19:04:59.421Z,1.67
2022-08-07T19:07:51.654Z,2.28
2022-08-07T19:10:31.186Z,2.53
2022-08-07T19:13:46.245Z,1.95
2022-08-07T19:17:08.002Z,1.83
2022-08-07T19:20:29.989Z,2.03
2022-08-07T19:23:18.565Z,1.88
2022-08-07T19:26:23.436Z,2.42
2022-08-07T19:30:57.762Z,1.42
2022-08-07T19:32:10.248Z,2.20
2022-08-07T19:34:34.374Z,1.15
2022-08-07T19:37:10.285Z,1.20
2022-08-07T19:39:57.198Z,2.10
2022-08-07T19:42:31.699Z,1.40
2022-08-07T19:45:12.474Z,2.03
2022-08-07T19:50:41.439Z,1.63
2022-08-07T19:54:34.718Z,1.52
2022-08-07T19:56:15.095Z,1.20
2022-08-07T19:58:58.161Z,1.52
2022-08-07T20:01:52.209Z,2.40
2022-08-07T20:04:31.950Z,1.17
2022-08-07T20:07:09.262Z,5.20
2022-08-07T20:10:33.676Z,2.75
2022-08-07T20:12:40.461Z,2.85
2022-08-07T20:15:21.904Z,2.50
2022-08-07T20:18:01.410Z,2.22
2022-08-07T20:20:31.565Z,3.72
2022-08-07T20:23:23.114Z,1.60
2022-08-07T20:25:50.763Z,2.30
2022-08-07T20:28:29.763Z,4.30
2022-08-07T20:31:00.349Z,2.92
2022-08-07T20:33:37.482Z,3.67
2022-08-07T20:36:07.242Z,1.90
2022-08-07T20:38:36.494Z,1.10
2022-08-07T20:41:34.246Z,2.33
2022-08-07T20:44:12.666Z,3.63
2022-08-07T20:46:44.278Z,1.83
2022-08-07T20:49:57.994Z,1.85
2022-08-07T20:52:16.679Z,1.98
2022-08-07T20:54:53.812Z,1.55
2022-08-07T20:57:38.437Z,2.05
2022-08-07T21:00:17.988Z,1.90
2022-08-07T21:02:59.781Z,27.15
2022-08-07T21:05:51.199Z,3.58
2022-08-07T21:08:39.305Z,3.85
2022-08-07T21:11:14.652Z,3.15
2022-08-07T21:14:16.239Z,2.05
2022-08-07T21:17:06.405Z,2.72
2022-08-07T21:19:51.175Z,2.42
2022-08-07T21:22:19.966Z,1.77
2022-08-07T21:24:55.803Z,2.15
2022-08-07T21:27:47.429Z,2.53
2022-08-07T21:30:17.578Z,1.50
2022-08-07T21:33:13.050Z,1.98
2022-08-07T21:36:04.087Z,2.88
2022-08-07T21:38:55.318Z,1.83
2022-08-07T21:41:59.838Z,2.33
2022-08-07T21:44:44.315Z,3.92
2022-08-07T21:47:34.763Z,3.97
2022-08-07T21:50:14.510Z,2.70
2022-08-07T21:53:08.413Z,2.50
2022-08-07T21:59:09.407Z,2.50
2022-08-07T22:02:10.723Z,2.97
2022-08-07T22:04:37.154Z,2.35
2022-08-07T22:07:12.824Z,2.00
2022-08-07T22:09:54.379Z,3.72
2022-08-07T22:12:48.329Z,3.00
2022-08-07T22:16:39.514Z,4.43
2022-08-07T22:18:35.643Z,2.30
2022-08-07T22:21:16.873Z,2.40
2022-08-07T22:23:59.911Z,2.90
2022-08-07T22:26:36.709Z,2.70
2022-08-07T22:29:38.139Z,3.17
2022-08-07T22:32:29.151Z,2.67
2022-08-07T22:35:02.224Z,2.13
2022-08-07T22:38:03.887Z,2.13
2022-08-07T22:40:56.853Z,1.98
2022-08-07T22:43:33.956Z,2.90
2022-08-07T22:47:03.051Z,2.05
2022-08-07T22:49:18.139Z,2.63
2022-08-07T22:52:37.152Z,2.35
2022-08-07T22:55:17.052Z,3.03
2022-08-07T22:58:17.407Z,2.97
2022-08-07T23:01:06.997Z,2.78
2022-08-07T23:04:00.244Z,2.50
2022-08-07T23:06:27.153Z,2.83
2022-08-07T23:10:04.435Z,2.45
2022-08-07T23:12:37.347Z,2.88
2022-08-07T23:18:10.404Z,2.35
2022-08-07T23:20:52.986Z,3.50
2022-08-07T23:24:06.298Z,1.85
2022-08-07T23:26:50.596Z,4.28
2022-08-07T23:30:38.976Z,1.70
2022-08-07T23:34:19.766Z,3.45
2022-08-07T23:35:44.797Z,4.18
2022-08-07T23:38:43.152Z,2.80
2022-08-07T23:41:33.374Z,2.15
2022-08-07T23:44:29.966Z,3.40
2022-08-07T23:47:05.530Z,3.97
2022-08-07T23:49:51.447Z,2.53
2022-08-07T23:52:58.558Z,1.95
2022-08-07T23:55:51.843Z,3.10
2022-08-07T23:58:26.394Z,2.78
